sensor_id;sensor_type;location;lat;lon;timestamp;P1;durP1;ratioP1;P2;durP2;ratioP2
65998;SDS011;52766;56.008;37.440;2022-10-13T00:00:48;3.47;;;1.40;;
65998;SDS011;52766;56.008;37.440;2022-10-13T00:03:16;5.60;;;2.58;;
65998;SDS011;52766;56.008;37.440;2022-10-13T00:05:42;3.47;;;1.88;;
65998;SDS011;52766;56.008;37.440;2022-10-13T00:08:13;3.03;;;1.50;;
65998;SDS011;52766;56.008;37.440;2022-10-13T00:10:44;3.75;;;1.92;;
65998;SDS011;52766;56.008;37.440;2022-10-13T00:13:11;5.28;;;2.78;;
65998;SDS011;52766;56.008;37.440;2022-10-13T00:15:40;6.50;;;2.20;;
65998;SDS011;52766;56.008;37.440;2022-10-13T00:18:07;6.10;;;2.15;;
65998;SDS011;52766;56.008;37.440;2022-10-13T00:20:34;4.75;;;1.85;;
65998;SDS011;52766;56.008;37.440;2022-10-13T00:23:01;5.20;;;1.67;;
65998;SDS011;52766;56.008;37.440;2022-10-13T00:25:28;5.53;;;2.08;;
65998;SDS011;52766;56.008;37.440;2022-10-13T00:27:55;4.75;;;2.10;;
65998;SDS011;52766;56.008;37.440;2022-10-13T00:30:24;4.35;;;1.95;;
65998;SDS011;52766;56.008;37.440;2022-10-13T00:32:50;5.22;;;1.98;;
65998;SDS011;52766;56.008;37.440;2022-10-13T00:35:20;4.38;;;1.83;;
65998;SDS011;52766;56.008;37.440;2022-10-13T00:37:46;4.93;;;2.03;;
65998;SDS011;52766;56.008;37.440;2022-10-13T00:40:20;6.13;;;1.98;;
65998;SDS011;52766;56.008;37.440;2022-10-13T00:42:48;3.13;;;1.67;;
65998;SDS011;52766;56.008;37.440;2022-10-13T00:47:44;4.40;;;2.10;;
65998;SDS011;52766;56.008;37.440;2022-10-13T00:50:22;7.78;;;2.97;;
65998;SDS011;52766;56.008;37.440;2022-10-13T00:52:53;6.82;;;2.53;;
65998;SDS011;52766;56.008;37.440;2022-10-13T00:55:23;5.88;;;2.50;;
65998;SDS011;52766;56.008;37.440;2022-10-13T00:57:51;4.30;;;2.38;;
65998;SDS011;52766;56.008;37.440;2022-10-13T01:00:25;2.60;;;1.58;;
65998;SDS011;52766;56.008;37.440;2022-10-13T01:02:52;4.40;;;2.22;;
65998;SDS011;52766;56.008;37.440;2022-10-13T01:05:18;3.25;;;1.83;;
65998;SDS011;52766;56.008;37.440;2022-10-13T01:07:46;5.57;;;2.80;;
65998;SDS011;52766;56.008;37.440;2022-10-13T01:10:16;6.97;;;3.00;;
65998;SDS011;52766;56.008;37.440;2022-10-13T01:21:53;2.85;;;1.80;;
65998;SDS011;52766;56.008;37.440;2022-10-13T01:35:07;4.95;;;2.80;;
65998;SDS011;52766;56.008;37.440;2022-10-13T01:40:28;7.68;;;3.63;;
65998;SDS011;52766;56.008;37.440;2022-10-13T01:43:20;13.13;;;4.32;;
65998;SDS011;52766;56.008;37.440;2022-10-13T01:45:48;5.60;;;2.90;;
65998;SDS011;52766;56.008;37.440;2022-10-13T01:48:19;10.55;;;4.35;;
65998;SDS011;52766;56.008;37.440;2022-10-13T01:53:16;11.93;;;4.40;;
65998;SDS011;52766;56.008;37.440;2022-10-13T01:55:50;11.77;;;4.55;;
65998;SDS011;52766;56.008;37.440;2022-10-13T01:58:24;10.18;;;3.10;;
65998;SDS011;52766;56.008;37.440;2022-10-13T02:03:52;8.82;;;3.88;;
65998;SDS011;52766;56.008;37.440;2022-10-13T02:06:35;9.40;;;4.22;;
65998;SDS011;52766;56.008;37.440;2022-10-13T02:09:37;10.60;;;3.20;;
65998;SDS011;52766;56.008;37.440;2022-10-13T02:12:12;8.25;;;4.53;;
65998;SDS011;52766;56.008;37.440;2022-10-13T02:14:43;13.65;;;5.18;;
65998;SDS011;52766;56.008;37.440;2022-10-13T02:17:10;13.48;;;5.00;;
65998;SDS011;52766;56.008;37.440;2022-10-13T02:19:42;10.05;;;4.22;;
65998;SDS011;52766;56.008;37.440;2022-10-13T02:22:10;11.77;;;5.97;;
65998;SDS011;52766;56.008;37.440;2022-10-13T02:24:38;15.00;;;5.03;;
65998;SDS011;52766;56.008;37.440;2022-10-13T02:27:05;9.65;;;4.18;;
65998;SDS011;52766;56.008;37.440;2022-10-13T02:29:31;13.95;;;4.95;;
65998;SDS011;52766;56.008;37.440;2022-10-13T02:31:59;15.32;;;5.85;;
65998;SDS011;52766;56.008;37.440;2022-10-13T02:34:29;13.75;;;5.38;;
65998;SDS011;52766;56.008;37.440;2022-10-13T02:36:55;12.85;;;5.50;;
65998;SDS011;52766;56.008;37.440;2022-10-13T02:39:20;14.02;;;5.00;;
65998;SDS011;52766;56.008;37.440;2022-10-13T02:41:47;15.15;;;5.97;;
65998;SDS011;52766;56.008;37.440;2022-10-13T02:44:14;15.18;;;5.82;;
65998;SDS011;52766;56.008;37.440;2022-10-13T02:46:41;10.50;;;5.00;;
65998;SDS011;52766;56.008;37.440;2022-10-13T02:49:08;11.57;;;5.22;;
65998;SDS011;52766;56.008;37.440;2022-10-13T02:51:35;10.45;;;4.40;;
65998;SDS011;52766;56.008;37.440;2022-10-13T02:54:01;14.05;;;6.55;;
65998;SDS011;52766;56.008;37.440;2022-10-13T02:56:28;14.80;;;5.43;;
65998;SDS011;52766;56.008;37.440;2022-10-13T02:58:57;11.90;;;4.85;;
65998;SDS011;52766;56.008;37.440;2022-10-13T03:01:25;10.48;;;4.63;;
65998;SDS011;52766;56.008;37.440;2022-10-13T03:03:52;12.98;;;6.50;;
65998;SDS011;52766;56.008;37.440;2022-10-13T03:06:19;9.50;;;5.25;;
65998;SDS011;52766;56.008;37.440;2022-10-13T03:08:45;13.55;;;5.53;;
65998;SDS011;52766;56.008;37.440;2022-10-13T03:11:12;9.38;;;4.53;;
65998;SDS011;52766;56.008;37.440;2022-10-13T03:13:43;10.38;;;5.45;;
65998;SDS011;52766;56.008;37.440;2022-10-13T03:16:21;12.27;;;5.72;;
65998;SDS011;52766;56.008;37.440;2022-10-13T03:18:49;12.75;;;4.80;;
65998;SDS011;52766;56.008;37.440;2022-10-13T03:21:18;13.85;;;6.50;;
65998;SDS011;52766;56.008;37.440;2022-10-13T03:23:46;12.05;;;5.57;;
65998;SDS011;52766;56.008;37.440;2022-10-13T03:26:18;11.60;;;4.95;;
65998;SDS011;52766;56.008;37.440;2022-10-13T03:29:05;12.32;;;5.68;;
65998;SDS011;52766;56.008;37.440;2022-10-13T03:31:38;8.85;;;3.95;;
65998;SDS011;52766;56.008;37.440;2022-10-13T03:34:08;11.30;;;5.00;;
65998;SDS011;52766;56.008;37.440;2022-10-13T03:36:42;12.80;;;5.25;;
65998;SDS011;52766;56.008;37.440;2022-10-13T03:39:46;9.23;;;4.38;;
65998;SDS011;52766;56.008;37.440;2022-10-13T03:46:54;13.88;;;5.82;;
65998;SDS011;52766;56.008;37.440;2022-10-13T03:49:33;10.40;;;4.15;;
65998;SDS011;52766;56.008;37.440;2022-10-13T03:56:00;10.95;;;4.88;;
65998;SDS011;52766;56.008;37.440;2022-10-13T03:58:44;9.57;;;4.57;;
65998;SDS011;52766;56.008;37.440;2022-10-13T04:01:14;14.60;;;5.78;;
65998;SDS011;52766;56.008;37.440;2022-10-13T04:03:45;12.68;;;5.82;;
65998;SDS011;52766;56.008;37.440;2022-10-13T04:06:13;9.75;;;4.13;;
65998;SDS011;52766;56.008;37.440;2022-10-13T04:08:53;25.98;;;5.85;;
65998;SDS011;52766;56.008;37.440;2022-10-13T04:11:31;12.70;;;4.72;;
65998;SDS011;52766;56.008;37.440;2022-10-13T04:14:00;10.55;;;5.00;;
65998;SDS011;52766;56.008;37.440;2022-10-13T04:16:29;13.23;;;5.20;;
65998;SDS011;52766;56.008;37.440;2022-10-13T04:19:02;14.40;;;6.25;;
65998;SDS011;52766;56.008;37.440;2022-10-13T04:21:31;11.65;;;4.97;;
65998;SDS011;52766;56.008;37.440;2022-10-13T04:23:59;14.85;;;7.55;;
65998;SDS011;52766;56.008;37.440;2022-10-13T04:26:29;15.80;;;6.30;;
65998;SDS011;52766;56.008;37.440;2022-10-13T04:36:30;10.15;;;4.90;;
65998;SDS011;52766;56.008;37.440;2022-10-13T04:38:57;10.70;;;5.35;;
65998;SDS011;52766;56.008;37.440;2022-10-13T04:41:25;13.15;;;5.22;;
65998;SDS011;52766;56.008;37.440;2022-10-13T04:43:59;12.95;;;5.43;;
65998;SDS011;52766;56.008;37.440;2022-10-13T04:46:31;14.10;;;5.20;;
65998;SDS011;52766;56.008;37.440;2022-10-13T04:49:09;14.80;;;5.20;;
65998;SDS011;52766;56.008;37.440;2022-10-13T04:51:40;12.48;;;5.10;;
65998;SDS011;52766;56.008;37.440;2022-10-13T04:54:13;14.13;;;5.55;;
65998;SDS011;52766;56.008;37.440;2022-10-13T04:56:45;12.25;;;5.65;;
65998;SDS011;52766;56.008;37.440;2022-10-13T04:59:18;11.23;;;5.65;;
65998;SDS011;52766;56.008;37.440;2022-10-13T05:01:43;13.00;;;5.47;;
65998;SDS011;52766;56.008;37.440;2022-10-13T05:04:15;11.20;;;4.93;;
65998;SDS011;52766;56.008;37.440;2022-10-13T05:06:42;11.48;;;5.78;;
65998;SDS011;52766;56.008;37.440;2022-10-13T05:09:13;16.48;;;5.32;;
65998;SDS011;52766;56.008;37.440;2022-10-13T05:11:42;10.55;;;4.80;;
65998;SDS011;52766;56.008;37.440;2022-10-13T05:14:09;18.70;;;5.97;;
65998;SDS011;52766;56.008;37.440;2022-10-13T05:16:44;9.10;;;4.38;;
65998;SDS011;52766;56.008;37.440;2022-10-13T05:19:14;14.48;;;6.60;;
65998;SDS011;52766;56.008;37.440;2022-10-13T05:21:40;12.10;;;4.13;;
65998;SDS011;52766;56.008;37.440;2022-10-13T05:24:09;13.85;;;5.15;;
65998;SDS011;52766;56.008;37.440;2022-10-13T05:27:10;12.75;;;4.97;;
65998;SDS011;52766;56.008;37.440;2022-10-13T05:29:40;10.73;;;4.80;;
65998;SDS011;52766;56.008;37.440;2022-10-13T05:32:06;15.27;;;5.50;;
65998;SDS011;52766;56.008;37.440;2022-10-13T05:34:32;10.90;;;4.75;;
65998;SDS011;52766;56.008;37.440;2022-10-13T05:37:04;12.48;;;5.55;;
65998;SDS011;52766;56.008;37.440;2022-10-13T05:39:33;12.43;;;5.05;;
65998;SDS011;52766;56.008;37.440;2022-10-13T05:42:00;8.27;;;4.32;;
65998;SDS011;52766;56.008;37.440;2022-10-13T05:44:26;8.43;;;4.60;;
65998;SDS011;52766;56.008;37.440;2022-10-13T05:46:54;7.97;;;4.03;;
65998;SDS011;52766;56.008;37.440;2022-10-13T05:49:21;7.93;;;3.03;;
65998;SDS011;52766;56.008;37.440;2022-10-13T05:51:48;8.35;;;3.65;;
65998;SDS011;52766;56.008;37.440;2022-10-13T05:54:20;6.60;;;3.30;;
65998;SDS011;52766;56.008;37.440;2022-10-13T05:57:16;8.35;;;3.97;;
65998;SDS011;52766;56.008;37.440;2022-10-13T05:59:47;7.72;;;4.18;;
65998;SDS011;52766;56.008;37.440;2022-10-13T06:02:17;10.02;;;4.45;;
65998;SDS011;52766;56.008;37.440;2022-10-13T06:04:44;9.98;;;4.68;;
65998;SDS011;52766;56.008;37.440;2022-10-13T06:07:12;13.15;;;6.13;;
65998;SDS011;52766;56.008;37.440;2022-10-13T06:09:40;13.50;;;5.47;;
65998;SDS011;52766;56.008;37.440;2022-10-13T06:12:07;8.75;;;3.67;;
65998;SDS011;52766;56.008;37.440;2022-10-13T06:14:36;7.97;;;3.50;;
65998;SDS011;52766;56.008;37.440;2022-10-13T06:17:05;12.93;;;5.20;;
65998;SDS011;52766;56.008;37.440;2022-10-13T06:19:32;8.80;;;2.90;;
65998;SDS011;52766;56.008;37.440;2022-10-13T06:22:21;7.07;;;3.22;;
65998;SDS011;52766;56.008;37.440;2022-10-13T06:24:47;8.82;;;4.07;;
65998;SDS011;52766;56.008;37.440;2022-10-13T06:27:13;7.95;;;4.63;;
65998;SDS011;52766;56.008;37.440;2022-10-13T06:29:42;11.00;;;5.13;;
65998;SDS011;52766;56.008;37.440;2022-10-13T06:32:08;14.30;;;5.63;;
65998;SDS011;52766;56.008;37.440;2022-10-13T06:34:34;10.90;;;3.17;;
65998;SDS011;52766;56.008;37.440;2022-10-13T06:37:01;10.35;;;4.43;;
65998;SDS011;52766;56.008;37.440;2022-10-13T06:39:27;11.05;;;4.32;;
65998;SDS011;52766;56.008;37.440;2022-10-13T06:41:56;23.35;;;4.90;;
65998;SDS011;52766;56.008;37.440;2022-10-13T06:47:03;8.45;;;2.78;;
65998;SDS011;52766;56.008;37.440;2022-10-13T06:49:32;10.23;;;4.15;;
65998;SDS011;52766;56.008;37.440;2022-10-13T06:52:04;7.30;;;3.25;;
65998;SDS011;52766;56.008;37.440;2022-10-13T06:54:33;5.95;;;2.55;;
65998;SDS011;52766;56.008;37.440;2022-10-13T06:56:59;9.18;;;4.85;;
65998;SDS011;52766;56.008;37.440;2022-10-13T06:59:26;8.70;;;4.18;;
65998;SDS011;52766;56.008;37.440;2022-10-13T07:01:52;13.00;;;5.20;;
65998;SDS011;52766;56.008;37.440;2022-10-13T07:04:20;7.50;;;4.47;;
65998;SDS011;52766;56.008;37.440;2022-10-13T07:06:47;5.93;;;3.47;;
65998;SDS011;52766;56.008;37.440;2022-10-13T07:09:14;5.10;;;2.17;;
65998;SDS011;52766;56.008;37.440;2022-10-13T07:11:42;10.18;;;4.95;;
65998;SDS011;52766;56.008;37.440;2022-10-13T07:14:10;10.98;;;5.25;;
65998;SDS011;52766;56.008;37.440;2022-10-13T07:16:39;10.23;;;3.50;;
65998;SDS011;52766;56.008;37.440;2022-10-13T07:19:08;8.63;;;3.15;;
65998;SDS011;52766;56.008;37.440;2022-10-13T07:21:40;10.52;;;4.03;;
65998;SDS011;52766;56.008;37.440;2022-10-13T07:24:09;7.65;;;4.20;;
65998;SDS011;52766;56.008;37.440;2022-10-13T07:26:36;5.78;;;2.90;;
65998;SDS011;52766;56.008;37.440;2022-10-13T07:29:02;10.63;;;4.88;;
65998;SDS011;52766;56.008;37.440;2022-10-13T07:31:28;6.60;;;3.42;;
65998;SDS011;52766;56.008;37.440;2022-10-13T07:33:54;5.05;;;2.83;;
65998;SDS011;52766;56.008;37.440;2022-10-13T07:36:26;7.95;;;3.95;;
65998;SDS011;52766;56.008;37.440;2022-10-13T07:38:54;10.77;;;3.55;;
65998;SDS011;52766;56.008;37.440;2022-10-13T07:41:21;3.72;;;1.90;;
65998;SDS011;52766;56.008;37.440;2022-10-13T07:43:47;4.40;;;2.65;;
65998;SDS011;52766;56.008;37.440;2022-10-13T07:46:20;5.18;;;2.97;;
65998;SDS011;52766;56.008;37.440;2022-10-13T07:48:47;12.27;;;5.57;;
65998;SDS011;52766;56.008;37.440;2022-10-13T07:51:13;9.20;;;4.47;;
65998;SDS011;52766;56.008;37.440;2022-10-13T07:53:40;8.60;;;3.33;;
65998;SDS011;52766;56.008;37.440;2022-10-13T07:56:07;10.43;;;4.72;;
65998;SDS011;52766;56.008;37.440;2022-10-13T07:58:36;8.32;;;2.88;;
65998;SDS011;52766;56.008;37.440;2022-10-13T08:01:03;10.95;;;3.53;;
65998;SDS011;52766;56.008;37.440;2022-10-13T08:03:29;4.50;;;2.50;;
65998;SDS011;52766;56.008;37.440;2022-10-13T08:05:59;4.68;;;2.33;;
65998;SDS011;52766;56.008;37.440;2022-10-13T08:08:27;5.82;;;2.35;;
65998;SDS011;52766;56.008;37.440;2022-10-13T08:11:08;7.18;;;3.30;;
65998;SDS011;52766;56.008;37.440;2022-10-13T08:16:36;6.20;;;2.78;;
65998;SDS011;52766;56.008;37.440;2022-10-13T08:19:04;6.57;;;2.72;;
65998;SDS011;52766;56.008;37.440;2022-10-13T08:21:33;4.32;;;2.60;;
65998;SDS011;52766;56.008;37.440;2022-10-13T08:24:06;5.88;;;3.10;;
65998;SDS011;52766;56.008;37.440;2022-10-13T08:26:37;4.55;;;2.47;;
65998;SDS011;52766;56.008;37.440;2022-10-13T08:32:12;5.55;;;2.40;;
65998;SDS011;52766;56.008;37.440;2022-10-13T08:34:47;6.38;;;3.25;;
65998;SDS011;52766;56.008;37.440;2022-10-13T09:39:04;7.93;;;4.25;;
65998;SDS011;52766;56.008;37.440;2022-10-13T09:41:39;8.30;;;3.80;;
65998;SDS011;52766;56.008;37.440;2022-10-13T09:44:18;5.80;;;3.17;;
65998;SDS011;52766;56.008;37.440;2022-10-13T09:47:01;6.45;;;3.20;;
65998;SDS011;52766;56.008;37.440;2022-10-13T09:49:42;2.95;;;2.08;;
65998;SDS011;52766;56.008;37.440;2022-10-13T09:54:48;5.28;;;2.15;;
65998;SDS011;52766;56.008;37.440;2022-10-13T09:57:27;5.53;;;2.70;;
65998;SDS011;52766;56.008;37.440;2022-10-13T10:00:10;6.80;;;2.83;;
65998;SDS011;52766;56.008;37.440;2022-10-13T10:02:43;5.13;;;3.30;;
65998;SDS011;52766;56.008;37.440;2022-10-13T10:08:14;5.47;;;2.17;;
65998;SDS011;52766;56.008;37.440;2022-10-13T10:10:43;5.82;;;3.00;;
65998;SDS011;52766;56.008;37.440;2022-10-13T10:13:10;8.32;;;4.45;;
65998;SDS011;52766;56.008;37.440;2022-10-13T10:18:22;5.85;;;2.75;;
65998;SDS011;52766;56.008;37.440;2022-10-13T10:20:59;8.65;;;3.35;;
65998;SDS011;52766;56.008;37.440;2022-10-13T10:23:47;5.45;;;3.17;;
65998;SDS011;52766;56.008;37.440;2022-10-13T10:28:46;6.90;;;4.15;;
65998;SDS011;52766;56.008;37.440;2022-10-13T10:34:18;5.10;;;2.58;;
65998;SDS011;52766;56.008;37.440;2022-10-13T10:37:11;3.80;;;2.40;;
65998;SDS011;52766;56.008;37.440;2022-10-13T10:39:55;4.50;;;2.13;;
65998;SDS011;52766;56.008;37.440;2022-10-13T10:45:29;4.55;;;2.28;;
65998;SDS011;52766;56.008;37.440;2022-10-13T10:48:03;3.53;;;1.77;;
65998;SDS011;52766;56.008;37.440;2022-10-13T10:50:36;4.60;;;1.98;;
65998;SDS011;52766;56.008;37.440;2022-10-13T10:53:12;5.05;;;2.30;;
65998;SDS011;52766;56.008;37.440;2022-10-13T10:56:06;2.55;;;1.25;;
65998;SDS011;52766;56.008;37.440;2022-10-13T11:06:55;3.90;;;1.90;;
65998;SDS011;52766;56.008;37.440;2022-10-13T11:17:29;1.95;;;1.40;;
65998;SDS011;52766;56.008;37.440;2022-10-13T11:19:57;2.67;;;1.67;;
65998;SDS011;52766;56.008;37.440;2022-10-13T11:22:28;3.78;;;1.95;;
65998;SDS011;52766;56.008;37.440;2022-10-13T11:24:56;2.92;;;1.33;;
65998;SDS011;52766;56.008;37.440;2022-10-13T11:27:37;4.78;;;2.00;;
65998;SDS011;52766;56.008;37.440;2022-10-13T11:30:37;2.63;;;1.70;;
65998;SDS011;52766;56.008;37.440;2022-10-13T11:35:53;3.33;;;1.55;;
65998;SDS011;52766;56.008;37.440;2022-10-13T11:38:22;4.07;;;2.00;;
65998;SDS011;52766;56.008;37.440;2022-10-13T11:44:01;4.07;;;2.70;;
65998;SDS011;52766;56.008;37.440;2022-10-13T11:49:34;4.93;;;1.73;;
65998;SDS011;52766;56.008;37.440;2022-10-13T11:54:39;5.18;;;2.25;;
65998;SDS011;52766;56.008;37.440;2022-10-13T11:57:19;4.65;;;1.92;;
65998;SDS011;52766;56.008;37.440;2022-10-13T11:59:48;3.97;;;1.88;;
65998;SDS011;52766;56.008;37.440;2022-10-13T12:02:25;3.85;;;1.73;;
65998;SDS011;52766;56.008;37.440;2022-10-13T12:05:26;4.88;;;2.10;;
65998;SDS011;52766;56.008;37.440;2022-10-13T12:07:47;4.13;;;2.05;;
65998;SDS011;52766;56.008;37.440;2022-10-13T12:10:17;4.80;;;1.95;;
65998;SDS011;52766;56.008;37.440;2022-10-13T12:12:48;4.93;;;1.80;;
65998;SDS011;52766;56.008;37.440;2022-10-13T12:15:25;3.13;;;1.75;;
65998;SDS011;52766;56.008;37.440;2022-10-13T12:17:55;4.03;;;2.17;;
65998;SDS011;52766;56.008;37.440;2022-10-13T12:20:26;3.92;;;1.77;;
65998;SDS011;52766;56.008;37.440;2022-10-13T12:22:55;4.05;;;1.75;;
65998;SDS011;52766;56.008;37.440;2022-10-13T12:25:22;5.68;;;1.90;;
65998;SDS011;52766;56.008;37.440;2022-10-13T12:27:57;4.47;;;1.90;;
65998;SDS011;52766;56.008;37.440;2022-10-13T12:33:01;6.40;;;1.70;;
65998;SDS011;52766;56.008;37.440;2022-10-13T12:35:29;3.60;;;1.98;;
65998;SDS011;52766;56.008;37.440;2022-10-13T12:37:57;1.88;;;1.25;;
65998;SDS011;52766;56.008;37.440;2022-10-13T12:40:26;3.25;;;1.58;;
65998;SDS011;52766;56.008;37.440;2022-10-13T12:42:52;3.40;;;1.50;;
65998;SDS011;52766;56.008;37.440;2022-10-13T12:45:19;8.63;;;1.83;;
65998;SDS011;52766;56.008;37.440;2022-10-13T12:47:52;3.78;;;2.05;;
65998;SDS011;52766;56.008;37.440;2022-10-13T12:52:55;3.90;;;1.30;;
65998;SDS011;52766;56.008;37.440;2022-10-13T12:55:28;4.70;;;2.05;;
65998;SDS011;52766;56.008;37.440;2022-10-13T12:57:55;5.25;;;1.50;;
65998;SDS011;52766;56.008;37.440;2022-10-13T13:00:22;5.22;;;2.88;;
65998;SDS011;52766;56.008;37.440;2022-10-13T13:02:59;1.90;;;1.40;;
65998;SDS011;52766;56.008;37.440;2022-10-13T13:05:40;2.90;;;1.42;;
65998;SDS011;52766;56.008;37.440;2022-10-13T13:08:24;3.17;;;2.03;;
65998;SDS011;52766;56.008;37.440;2022-10-13T13:10:58;9.27;;;2.88;;
65998;SDS011;52766;56.008;37.440;2022-10-13T13:13:26;7.43;;;3.58;;
65998;SDS011;52766;56.008;37.440;2022-10-13T13:15:52;6.10;;;2.28;;
65998;SDS011;52766;56.008;37.440;2022-10-13T13:18:32;5.97;;;3.13;;
65998;SDS011;52766;56.008;37.440;2022-10-13T13:21:05;5.13;;;2.88;;
65998;SDS011;52766;56.008;37.440;2022-10-13T13:24:05;5.00;;;3.15;;
65998;SDS011;52766;56.008;37.440;2022-10-13T13:26:31;6.70;;;3.03;;
65998;SDS011;52766;56.008;37.440;2022-10-13T13:28:58;7.57;;;4.05;;
65998;SDS011;52766;56.008;37.440;2022-10-13T13:31:26;4.90;;;2.85;;
65998;SDS011;52766;56.008;37.440;2022-10-13T13:33:53;12.23;;;4.93;;
65998;SDS011;52766;56.008;37.440;2022-10-13T13:36:23;7.28;;;3.83;;
65998;SDS011;52766;56.008;37.440;2022-10-13T13:38:54;7.05;;;4.00;;
65998;SDS011;52766;56.008;37.440;2022-10-13T13:41:22;10.18;;;4.60;;
65998;SDS011;52766;56.008;37.440;2022-10-13T13:43:56;5.25;;;2.60;;
65998;SDS011;52766;56.008;37.440;2022-10-13T13:46:23;7.00;;;3.10;;
65998;SDS011;52766;56.008;37.440;2022-10-13T13:48:50;6.57;;;3.85;;
65998;SDS011;52766;56.008;37.440;2022-10-13T13:51:16;5.55;;;2.63;;
65998;SDS011;52766;56.008;37.440;2022-10-13T13:53:44;4.55;;;2.58;;
65998;SDS011;52766;56.008;37.440;2022-10-13T13:56:14;5.03;;;2.83;;
65998;SDS011;52766;56.008;37.440;2022-10-13T13:58:42;6.68;;;3.08;;
65998;SDS011;52766;56.008;37.440;2022-10-13T14:01:09;10.07;;;4.13;;
65998;SDS011;52766;56.008;37.440;2022-10-13T14:03:35;5.95;;;3.00;;
65998;SDS011;52766;56.008;37.440;2022-10-13T14:06:04;7.38;;;4.25;;
65998;SDS011;52766;56.008;37.440;2022-10-13T14:08:34;13.55;;;4.60;;
65998;SDS011;52766;56.008;37.440;2022-10-13T14:11:06;6.93;;;2.60;;
65998;SDS011;52766;56.008;37.440;2022-10-13T14:13:33;7.57;;;3.25;;
65998;SDS011;52766;56.008;37.440;2022-10-13T14:15:59;8.35;;;4.15;;
65998;SDS011;52766;56.008;37.440;2022-10-13T14:18:26;7.22;;;4.35;;
65998;SDS011;52766;56.008;37.440;2022-10-13T14:20:53;12.52;;;4.72;;
65998;SDS011;52766;56.008;37.440;2022-10-13T14:23:18;11.43;;;4.53;;
65998;SDS011;52766;56.008;37.440;2022-10-13T14:25:45;10.82;;;5.07;;
65998;SDS011;52766;56.008;37.440;2022-10-13T14:28:11;7.47;;;3.85;;
65998;SDS011;52766;56.008;37.440;2022-10-13T14:30:38;10.35;;;4.47;;
65998;SDS011;52766;56.008;37.440;2022-10-13T14:33:05;16.42;;;6.80;;
65998;SDS011;52766;56.008;37.440;2022-10-13T14:35:31;9.35;;;4.22;;
65998;SDS011;52766;56.008;37.440;2022-10-13T14:37:58;10.70;;;6.00;;
65998;SDS011;52766;56.008;37.440;2022-10-13T14:40:24;13.10;;;6.13;;
65998;SDS011;52766;56.008;37.440;2022-10-13T14:42:50;14.25;;;6.82;;
65998;SDS011;52766;56.008;37.440;2022-10-13T14:45:17;9.30;;;5.10;;
65998;SDS011;52766;56.008;37.440;2022-10-13T14:47:46;9.02;;;5.10;;
65998;SDS011;52766;56.008;37.440;2022-10-13T14:50:12;9.68;;;4.78;;
65998;SDS011;52766;56.008;37.440;2022-10-13T14:52:47;8.27;;;4.50;;
65998;SDS011;52766;56.008;37.440;2022-10-13T14:55:40;10.38;;;4.45;;
65998;SDS011;52766;56.008;37.440;2022-10-13T14:58:07;8.43;;;4.78;;
65998;SDS011;52766;56.008;37.440;2022-10-13T15:00:46;9.13;;;5.95;;
65998;SDS011;52766;56.008;37.440;2022-10-13T15:03:19;11.13;;;4.82;;
65998;SDS011;52766;56.008;37.440;2022-10-13T15:05:45;12.00;;;4.78;;
65998;SDS011;52766;56.008;37.440;2022-10-13T15:08:18;10.55;;;5.25;;
65998;SDS011;52766;56.008;37.440;2022-10-13T15:10:45;9.07;;;4.40;;
65998;SDS011;52766;56.008;37.440;2022-10-13T15:13:14;13.77;;;4.78;;
65998;SDS011;52766;56.008;37.440;2022-10-13T15:15:57;12.13;;;5.65;;
65998;SDS011;52766;56.008;37.440;2022-10-13T15:18:29;12.63;;;6.22;;
65998;SDS011;52766;56.008;37.440;2022-10-13T15:21:13;12.95;;;6.10;;
65998;SDS011;52766;56.008;37.440;2022-10-13T15:23:53;16.33;;;7.78;;
65998;SDS011;52766;56.008;37.440;2022-10-13T15:26:31;17.33;;;8.57;;
65998;SDS011;52766;56.008;37.440;2022-10-13T15:29:02;12.90;;;7.15;;
65998;SDS011;52766;56.008;37.440;2022-10-13T15:34:14;14.90;;;6.78;;
65998;SDS011;52766;56.008;37.440;2022-10-13T15:36:53;18.42;;;8.20;;
65998;SDS011;52766;56.008;37.440;2022-10-13T15:39:44;29.38;;;10.63;;
65998;SDS011;52766;56.008;37.440;2022-10-13T15:42:15;13.80;;;6.47;;
65998;SDS011;52766;56.008;37.440;2022-10-13T15:47:59;22.85;;;7.28;;
65998;SDS011;52766;56.008;37.440;2022-10-13T15:53:47;14.32;;;7.05;;
65998;SDS011;52766;56.008;37.440;2022-10-13T15:56:23;18.17;;;7.45;;
65998;SDS011;52766;56.008;37.440;2022-10-13T15:59:00;22.70;;;9.50;;
65998;SDS011;52766;56.008;37.440;2022-10-13T16:01:49;67.35;;;29.40;;
65998;SDS011;52766;56.008;37.440;2022-10-13T16:04:28;25.23;;;10.52;;
65998;SDS011;52766;56.008;37.440;2022-10-13T16:07:18;19.67;;;9.88;;
65998;SDS011;52766;56.008;37.440;2022-10-13T16:09:52;21.13;;;8.48;;
65998;SDS011;52766;56.008;37.440;2022-10-13T16:14:05;18.48;;;8.35;;
65998;SDS011;52766;56.008;37.440;2022-10-13T16:17:03;33.60;;;13.10;;
65998;SDS011;52766;56.008;37.440;2022-10-13T16:19:46;51.33;;;22.70;;
65998;SDS011;52766;56.008;37.440;2022-10-13T16:22:30;60.97;;;25.75;;
65998;SDS011;52766;56.008;37.440;2022-10-13T16:24:58;26.02;;;10.75;;
65998;SDS011;52766;56.008;37.440;2022-10-13T16:27:47;26.48;;;9.25;;
65998;SDS011;52766;56.008;37.440;2022-10-13T16:30:14;20.45;;;8.80;;
65998;SDS011;52766;56.008;37.440;2022-10-13T16:32:49;26.92;;;11.18;;
65998;SDS011;52766;56.008;37.440;2022-10-13T16:35:47;19.88;;;10.52;;
65998;SDS011;52766;56.008;37.440;2022-10-13T16:38:16;22.02;;;10.98;;
65998;SDS011;52766;56.008;37.440;2022-10-13T16:40:58;19.48;;;9.85;;
65998;SDS011;52766;56.008;37.440;2022-10-13T16:43:39;22.58;;;10.70;;
65998;SDS011;52766;56.008;37.440;2022-10-13T16:46:38;19.95;;;9.27;;
65998;SDS011;52766;56.008;37.440;2022-10-13T16:49:19;14.38;;;8.40;;
65998;SDS011;52766;56.008;37.440;2022-10-13T16:52:16;14.82;;;7.32;;
65998;SDS011;52766;56.008;37.440;2022-10-13T16:55:00;17.60;;;8.93;;
65998;SDS011;52766;56.008;37.440;2022-10-13T16:57:40;20.27;;;8.60;;
65998;SDS011;52766;56.008;37.440;2022-10-13T17:00:15;16.77;;;6.88;;
65998;SDS011;52766;56.008;37.440;2022-10-13T17:02:41;15.48;;;6.93;;
65998;SDS011;52766;56.008;37.440;2022-10-13T17:05:08;18.60;;;7.53;;
65998;SDS011;52766;56.008;37.440;2022-10-13T17:07:34;18.95;;;8.90;;
65998;SDS011;52766;56.008;37.440;2022-10-13T17:10:05;14.20;;;7.70;;
65998;SDS011;52766;56.008;37.440;2022-10-13T17:12:32;18.88;;;8.93;;
65998;SDS011;52766;56.008;37.440;2022-10-13T17:14:58;18.83;;;8.85;;
65998;SDS011;52766;56.008;37.440;2022-10-13T17:17:27;17.05;;;7.60;;
65998;SDS011;52766;56.008;37.440;2022-10-13T17:19:53;17.67;;;7.07;;
65998;SDS011;52766;56.008;37.440;2022-10-13T17:22:19;17.05;;;6.82;;
65998;SDS011;52766;56.008;37.440;2022-10-13T17:24:45;14.00;;;7.38;;
65998;SDS011;52766;56.008;37.440;2022-10-13T17:27:15;21.08;;;7.97;;
65998;SDS011;52766;56.008;37.440;2022-10-13T17:29:42;16.08;;;8.50;;
65998;SDS011;52766;56.008;37.440;2022-10-13T17:32:19;16.55;;;8.55;;
65998;SDS011;52766;56.008;37.440;2022-10-13T17:34:56;15.23;;;6.30;;
65998;SDS011;52766;56.008;37.440;2022-10-13T17:37:23;16.20;;;7.78;;
65998;SDS011;52766;56.008;37.440;2022-10-13T17:39:49;10.88;;;5.38;;
65998;SDS011;52766;56.008;37.440;2022-10-13T17:42:20;11.98;;;5.93;;
65998;SDS011;52766;56.008;37.440;2022-10-13T17:44:50;14.32;;;6.07;;
65998;SDS011;52766;56.008;37.440;2022-10-13T17:47:18;11.98;;;6.40;;
65998;SDS011;52766;56.008;37.440;2022-10-13T17:49:47;14.55;;;7.43;;
65998;SDS011;52766;56.008;37.440;2022-10-13T17:52:21;12.98;;;6.03;;